VLG47SW LEAL-LIPZ
Flight info
| Callsign | VLG47SW |
|---|---|
| Flight time | 1h 53m |
| Altitude | 36000 |
| Route | MITOS N851 MHN DCT MORSS DCT BAVON DCT ORKUM DCT ELSAG DCT ALG DCT OLBEK DCT ELKAP DCT OMAKU/N0362F180 Q125 NIMUM Z43 OTGIG |
| Aircraft | A21N/M-SDE2E3FGHIRWXY/LB1 |
Departure
| Time | 2026-05-04 05:57 |
|---|---|
| Airport | Alicante-Elche Miguel Hernández Airport (LEAL) |
Arrival
| Time | 2026-05-04 07:50 |
|---|---|
| Airport | Venice Marco Polo Airport (LIPZ) |
| Time | Latitude | Longitude | Altitude | Speed | Heading |
|---|---|---|---|---|---|
| 2026-05-04 05:48 | 38.28444 | -0.55683 | 101 ft | 0 kts | 10° |
| 2026-05-04 05:52 | 38.28472 | -0.55678 | 100 ft | 11 kts | 7° |
| 2026-05-04 05:52 | 38.28515 | -0.55706 | 100 ft | 5 kts | 291° |
| 2026-05-04 05:53 | 38.28525 | -0.55781 | 103 ft | 12 kts | 279° |
| 2026-05-04 05:54 | 38.28534 | -0.56823 | 130 ft | 29 kts | 275° |
| 2026-05-04 05:55 | 38.28564 | -0.57073 | 143 ft | 30 kts | 284° |
| 2026-05-04 05:55 | 38.28601 | -0.57319 | 153 ft | 19 kts | 281° |
| 2026-05-04 05:55 | 38.28604 | -0.57475 | 157 ft | 14 kts | 230° |
| 2026-05-04 05:55 | 38.28555 | -0.57503 | 159 ft | 0 kts | 188° |
| 2026-05-04 05:56 | 38.28524 | -0.57510 | 160 ft | 10 kts | 188° |
| 2026-05-04 05:56 | 38.28448 | -0.57459 | 158 ft | 18 kts | 109° |
| 2026-05-04 05:56 | 38.28412 | -0.57199 | 147 ft | 60 kts | 99° |
| 2026-05-04 05:57 | 38.28287 | -0.56293 | 119 ft | 151 kts | 100° |
| 2026-05-04 05:57 | 38.28080 | -0.54766 | 487 ft | 182 kts | 99° |
| 2026-05-04 05:57 | 38.27850 | -0.53227 | 1448 ft | 176 kts | 103° |
| 2026-05-04 05:57 | 38.27572 | -0.51557 | 2071 ft | 211 kts | 101° |
| 2026-05-04 05:58 | 38.27588 | -0.49557 | 2634 ft | 247 kts | 73° |
| 2026-05-04 05:58 | 38.28514 | -0.47595 | 3466 ft | 269 kts | 53° |
| 2026-05-04 05:58 | 38.29685 | -0.45718 | 4815 ft | 271 kts | 52° |
| 2026-05-04 05:58 | 38.30806 | -0.43763 | 6154 ft | 276 kts | 58° |
| 2026-05-04 05:59 | 38.31742 | -0.41582 | 7408 ft | 285 kts | 65° |
| 2026-05-04 05:59 | 38.32552 | -0.39229 | 8604 ft | 296 kts | 68° |
| 2026-05-04 05:59 | 38.33336 | -0.36786 | 9796 ft | 307 kts | 69° |
| 2026-05-04 05:59 | 38.34154 | -0.34187 | 10662 ft | 328 kts | 69° |
| 2026-05-04 06:00 | 38.35039 | -0.31362 | 11263 ft | 355 kts | 69° |
| 2026-05-04 06:00 | 38.35979 | -0.28379 | 12223 ft | 368 kts | 68° |
| 2026-05-04 06:00 | 38.36982 | -0.25328 | 13306 ft | 378 kts | 68° |
| 2026-05-04 06:00 | 38.38023 | -0.22207 | 14319 ft | 387 kts | 68° |
| 2026-05-04 06:01 | 38.39090 | -0.19010 | 15242 ft | 397 kts | 68° |
| 2026-05-04 06:01 | 38.40182 | -0.15734 | 16170 ft | 407 kts | 68° |
| 2026-05-04 06:03 | 38.48348 | 0.09144 | 22110 ft | 456 kts | 69° |
| 2026-05-04 06:03 | 38.49558 | 0.12925 | 22925 ft | 462 kts | 69° |
| 2026-05-04 06:05 | 38.58384 | 0.40592 | 27213 ft | 497 kts | 69° |
| 2026-05-04 06:05 | 38.61003 | 0.48845 | 28302 ft | 505 kts | 69° |
| 2026-05-04 06:05 | 38.62326 | 0.53028 | 28828 ft | 509 kts | 69° |
| 2026-05-04 06:06 | 38.63660 | 0.57249 | 29320 ft | 513 kts | 69° |
| 2026-05-04 06:06 | 38.64999 | 0.61496 | 29809 ft | 517 kts | 69° |
| 2026-05-04 06:06 | 38.66352 | 0.65791 | 30284 ft | 521 kts | 69° |
| 2026-05-04 06:06 | 38.67690 | 0.70046 | 30781 ft | 521 kts | 69° |
| 2026-05-04 06:07 | 38.69039 | 0.74343 | 31359 ft | 520 kts | 69° |
| 2026-05-04 06:07 | 38.70385 | 0.78630 | 31904 ft | 518 kts | 69° |
| 2026-05-04 06:07 | 38.71728 | 0.82919 | 32457 ft | 517 kts | 69° |
| 2026-05-04 06:07 | 38.73065 | 0.87196 | 32980 ft | 516 kts | 69° |
| 2026-05-04 06:08 | 38.74399 | 0.91468 | 33489 ft | 516 kts | 69° |
| 2026-05-04 06:08 | 38.75728 | 0.95734 | 33988 ft | 515 kts | 69° |
| 2026-05-04 06:08 | 38.77054 | 0.99996 | 34412 ft | 514 kts | 69° |
| 2026-05-04 06:08 | 38.78365 | 1.04215 | 34851 ft | 513 kts | 69° |
| 2026-05-04 06:09 | 38.79681 | 1.08457 | 35291 ft | 511 kts | 69° |
| 2026-05-04 06:09 | 38.80995 | 1.12699 | 35708 ft | 510 kts | 69° |
| 2026-05-04 06:11 | 38.90122 | 1.42349 | 35969 ft | 510 kts | 69° |
| 2026-05-04 06:13 | 39.00218 | 1.76436 | 35971 ft | 510 kts | 70° |
| 2026-05-04 06:14 | 39.08919 | 2.06299 | 35985 ft | 510 kts | 70° |
| 2026-05-04 06:15 | 39.11399 | 2.14869 | 35995 ft | 510 kts | 70° |
| 2026-05-04 06:15 | 39.13868 | 2.23434 | 35986 ft | 510 kts | 70° |
| 2026-05-04 06:16 | 39.16332 | 2.32007 | 35980 ft | 510 kts | 70° |
| 2026-05-04 06:16 | 39.18773 | 2.40529 | 35990 ft | 510 kts | 70° |
| 2026-05-04 06:17 | 39.21226 | 2.49117 | 35989 ft | 510 kts | 70° |
| 2026-05-04 06:17 | 39.23672 | 2.57711 | 35989 ft | 510 kts | 70° |
| 2026-05-04 06:18 | 39.26109 | 2.66302 | 35991 ft | 510 kts | 70° |
| 2026-05-04 06:20 | 39.35788 | 3.00684 | 35993 ft | 509 kts | 70° |
| 2026-05-04 06:21 | 39.41789 | 3.22226 | 35996 ft | 510 kts | 70° |
| 2026-05-04 06:22 | 39.44944 | 3.30416 | 35997 ft | 508 kts | 59° |
| 2026-05-04 06:25 | 39.70111 | 3.85517 | 35994 ft | 507 kts | 58° |
| 2026-05-04 06:26 | 39.73688 | 3.93424 | 35993 ft | 507 kts | 58° |
| 2026-05-04 06:26 | 39.77257 | 4.01332 | 35995 ft | 506 kts | 58° |
| 2026-05-04 06:27 | 39.85962 | 4.21180 | 35989 ft | 507 kts | 68° |
| 2026-05-04 06:28 | 39.87808 | 4.28432 | 35998 ft | 507 kts | 74° |
| 2026-05-04 06:28 | 39.89705 | 4.37293 | 35993 ft | 507 kts | 76° |
| 2026-05-04 06:29 | 39.91492 | 4.46122 | 35997 ft | 507 kts | 76° |
| 2026-05-04 06:29 | 39.93296 | 4.55019 | 36004 ft | 507 kts | 76° |
| 2026-05-04 06:30 | 39.95109 | 4.63902 | 36005 ft | 505 kts | 75° |
| 2026-05-04 06:30 | 39.97006 | 4.72705 | 36012 ft | 504 kts | 73° |
| 2026-05-04 06:31 | 39.99019 | 4.81434 | 36010 ft | 504 kts | 73° |
| 2026-05-04 06:31 | 40.01045 | 4.90200 | 36012 ft | 504 kts | 73° |
| 2026-05-04 06:33 | 40.08982 | 5.25339 | 36015 ft | 504 kts | 73° |
| 2026-05-04 06:34 | 40.10935 | 5.34087 | 36013 ft | 504 kts | 73° |
| 2026-05-04 06:34 | 40.12893 | 5.42888 | 36037 ft | 503 kts | 73° |
| 2026-05-04 06:36 | 40.20626 | 5.78003 | 36023 ft | 502 kts | 73° |
| 2026-05-04 06:37 | 40.22532 | 5.86744 | 36028 ft | 502 kts | 73° |
| 2026-05-04 06:37 | 40.24445 | 5.95553 | 36031 ft | 502 kts | 73° |
| 2026-05-04 06:38 | 40.26351 | 6.04363 | 36031 ft | 502 kts | 73° |
| 2026-05-04 06:40 | 40.33888 | 6.39555 | 36040 ft | 501 kts | 73° |
| 2026-05-04 06:40 | 40.35756 | 6.48367 | 36036 ft | 501 kts | 73° |
| 2026-05-04 06:41 | 40.37600 | 6.57103 | 36042 ft | 500 kts | 73° |
| 2026-05-04 06:41 | 40.39448 | 6.65890 | 36042 ft | 499 kts | 73° |
| 2026-05-04 06:42 | 40.41289 | 6.74685 | 36044 ft | 499 kts | 73° |
| 2026-05-04 06:44 | 40.48572 | 7.09832 | 36047 ft | 498 kts | 73° |
| 2026-05-04 06:44 | 40.50374 | 7.18623 | 36056 ft | 498 kts | 73° |
| 2026-05-04 06:45 | 40.52158 | 7.27363 | 36059 ft | 498 kts | 73° |
| 2026-05-04 06:45 | 40.53947 | 7.36162 | 36065 ft | 498 kts | 73° |
| 2026-05-04 06:46 | 40.55730 | 7.44968 | 36062 ft | 498 kts | 73° |
| 2026-05-04 06:46 | 40.56890 | 7.53960 | 36062 ft | 499 kts | 82° |
| 2026-05-04 06:48 | 40.59992 | 7.90196 | 36064 ft | 498 kts | 83° |
| 2026-05-04 06:50 | 40.63778 | 8.26199 | 36071 ft | 493 kts | 64° |
| 2026-05-04 06:51 | 40.66720 | 8.34330 | 36075 ft | 491 kts | 59° |
| 2026-05-04 06:51 | 40.69917 | 8.42279 | 36073 ft | 490 kts | 58° |
| 2026-05-04 06:52 | 40.73140 | 8.50195 | 36071 ft | 490 kts | 58° |
| 2026-05-04 06:52 | 40.76337 | 8.58146 | 36072 ft | 490 kts | 58° |
| 2026-05-04 06:53 | 40.79485 | 8.66055 | 36076 ft | 490 kts | 58° |
| 2026-05-04 06:53 | 40.82644 | 8.74030 | 36076 ft | 489 kts | 59° |
| 2026-05-04 06:54 | 40.85784 | 8.81982 | 36077 ft | 488 kts | 58° |
| 2026-05-04 06:54 | 40.88918 | 8.89929 | 36078 ft | 488 kts | 59° |
| 2026-05-04 06:55 | 40.92054 | 8.97905 | 36080 ft | 488 kts | 59° |
| 2026-05-04 06:55 | 40.95161 | 9.05828 | 36084 ft | 488 kts | 59° |
| 2026-05-04 06:57 | 41.07517 | 9.37551 | 36096 ft | 482 kts | 59° |
| 2026-05-04 06:58 | 41.10582 | 9.45471 | 36098 ft | 482 kts | 59° |
| 2026-05-04 06:58 | 41.13630 | 9.53374 | 36098 ft | 480 kts | 59° |
| 2026-05-04 06:59 | 41.16652 | 9.61226 | 36110 ft | 480 kts | 59° |
| 2026-05-04 06:59 | 41.19677 | 9.69108 | 36102 ft | 479 kts | 59° |
| 2026-05-04 07:01 | 41.34743 | 9.90218 | 36110 ft | 447 kts | 16° |
| 2026-05-04 07:01 | 41.37623 | 9.91763 | 36116 ft | 446 kts | 16° |
| 2026-05-04 07:02 | 41.43409 | 9.94736 | 36112 ft | 446 kts | 15° |
| 2026-05-04 07:02 | 41.49160 | 9.97714 | 36113 ft | 446 kts | 16° |
| 2026-05-04 07:03 | 41.54949 | 10.00769 | 36118 ft | 446 kts | 16° |
| 2026-05-04 07:03 | 41.60720 | 10.03845 | 36121 ft | 446 kts | 17° |
| 2026-05-04 07:04 | 41.66481 | 10.06926 | 36121 ft | 446 kts | 17° |
| 2026-05-04 07:04 | 41.72212 | 10.09994 | 36124 ft | 445 kts | 17° |
| 2026-05-04 07:05 | 41.77970 | 10.13080 | 36129 ft | 446 kts | 17° |
| 2026-05-04 07:05 | 41.83741 | 10.16178 | 36127 ft | 446 kts | 17° |
| 2026-05-04 07:06 | 41.92359 | 10.20818 | 36126 ft | 446 kts | 17° |
| 2026-05-04 07:07 | 41.98118 | 10.23926 | 36130 ft | 446 kts | 17° |
| 2026-05-04 07:09 | 42.21245 | 10.36464 | 36136 ft | 449 kts | 18° |
| 2026-05-04 07:09 | 42.27041 | 10.39624 | 36134 ft | 449 kts | 18° |
| 2026-05-04 07:10 | 42.32838 | 10.42790 | 36138 ft | 449 kts | 18° |
| 2026-05-04 07:12 | 42.55992 | 10.55497 | 36135 ft | 450 kts | 18° |
| 2026-05-04 07:12 | 42.61800 | 10.58700 | 36150 ft | 450 kts | 18° |
| 2026-05-04 07:13 | 42.67563 | 10.61886 | 36147 ft | 449 kts | 18° |
| 2026-05-04 07:13 | 42.73363 | 10.65067 | 36159 ft | 449 kts | 18° |
| 2026-05-04 07:14 | 42.87027 | 10.72015 | 36147 ft | 449 kts | 17° |
| 2026-05-04 07:15 | 42.93841 | 10.75479 | 36159 ft | 449 kts | 17° |
| 2026-05-04 07:15 | 42.98713 | 10.77971 | 36152 ft | 449 kts | 18° |
| 2026-05-04 07:16 | 43.04571 | 10.80978 | 36164 ft | 449 kts | 18° |
| 2026-05-04 07:16 | 43.10425 | 10.83989 | 36154 ft | 449 kts | 18° |
| 2026-05-04 07:17 | 43.16279 | 10.87005 | 36166 ft | 449 kts | 18° |
| 2026-05-04 07:17 | 43.22129 | 10.90024 | 36169 ft | 449 kts | 18° |
| 2026-05-04 07:18 | 43.27981 | 10.93051 | 36158 ft | 449 kts | 18° |
| 2026-05-04 07:18 | 43.33833 | 10.96084 | 36172 ft | 448 kts | 18° |
| 2026-05-04 07:19 | 43.39633 | 10.99096 | 36179 ft | 448 kts | 18° |
| 2026-05-04 07:19 | 43.45466 | 11.02132 | 36185 ft | 448 kts | 18° |
| 2026-05-04 07:20 | 43.51304 | 11.05176 | 36187 ft | 448 kts | 18° |
| 2026-05-04 07:20 | 43.57107 | 11.08209 | 36194 ft | 448 kts | 18° |
| 2026-05-04 07:22 | 43.80409 | 11.20449 | 36182 ft | 447 kts | 18° |
| 2026-05-04 07:23 | 43.86236 | 11.23526 | 36185 ft | 447 kts | 18° |
| 2026-05-04 07:23 | 43.92011 | 11.26581 | 36193 ft | 447 kts | 19° |
| 2026-05-04 07:24 | 43.97811 | 11.29657 | 36196 ft | 446 kts | 19° |
| 2026-05-04 07:24 | 44.03605 | 11.32735 | 36172 ft | 445 kts | 19° |
| 2026-05-04 07:25 | 44.06492 | 11.34272 | 35756 ft | 442 kts | 19° |
| 2026-05-04 07:26 | 44.26111 | 11.46539 | 30262 ft | 443 kts | 24° |
| 2026-05-04 07:27 | 44.28870 | 11.48471 | 29250 ft | 444 kts | 24° |
| 2026-05-04 07:27 | 44.31625 | 11.50401 | 28556 ft | 438 kts | 24° |
| 2026-05-04 07:27 | 44.34316 | 11.52287 | 27992 ft | 429 kts | 24° |
| 2026-05-04 07:27 | 44.36964 | 11.54143 | 27367 ft | 422 kts | 25° |
| 2026-05-04 07:28 | 44.39576 | 11.55972 | 26737 ft | 416 kts | 25° |
| 2026-05-04 07:28 | 44.42152 | 11.57775 | 26124 ft | 411 kts | 25° |
| 2026-05-04 07:28 | 44.44699 | 11.59558 | 25514 ft | 406 kts | 25° |
| 2026-05-04 07:28 | 44.47214 | 11.61320 | 24911 ft | 401 kts | 25° |
| 2026-05-04 07:29 | 44.49703 | 11.63065 | 24297 ft | 397 kts | 25° |
| 2026-05-04 07:29 | 44.52129 | 11.64769 | 23693 ft | 394 kts | 25° |
| 2026-05-04 07:29 | 44.54554 | 11.66532 | 23002 ft | 390 kts | 30° |
| 2026-05-04 07:29 | 44.56846 | 11.68520 | 22399 ft | 384 kts | 31° |
| 2026-05-04 07:30 | 44.59083 | 11.70537 | 21822 ft | 381 kts | 33° |
| 2026-05-04 07:30 | 44.61287 | 11.72588 | 21219 ft | 379 kts | 33° |
| 2026-05-04 07:30 | 44.63476 | 11.74657 | 20611 ft | 376 kts | 34° |
| 2026-05-04 07:30 | 44.65629 | 11.76708 | 20010 ft | 373 kts | 34° |
| 2026-05-04 07:31 | 44.67767 | 11.78747 | 19425 ft | 369 kts | 34° |
| 2026-05-04 07:31 | 44.69887 | 11.80767 | 18834 ft | 366 kts | 34° |
| 2026-05-04 07:33 | 44.84182 | 11.94362 | 14767 ft | 347 kts | 34° |
| 2026-05-04 07:33 | 44.86182 | 11.96267 | 14195 ft | 344 kts | 34° |
| 2026-05-04 07:33 | 44.88160 | 11.98154 | 13611 ft | 342 kts | 34° |
| 2026-05-04 07:33 | 44.90120 | 12.00026 | 13026 ft | 339 kts | 34° |
| 2026-05-04 07:34 | 44.92010 | 12.01997 | 12456 ft | 336 kts | 39° |
| 2026-05-04 07:34 | 44.93783 | 12.04113 | 12059 ft | 328 kts | 41° |
| 2026-05-04 07:34 | 44.95461 | 12.06176 | 11925 ft | 312 kts | 41° |
| 2026-05-04 07:34 | 44.97075 | 12.08181 | 11444 ft | 308 kts | 41° |
| 2026-05-04 07:35 | 44.98727 | 12.10085 | 10965 ft | 306 kts | 33° |
| 2026-05-04 07:35 | 45.00646 | 12.11315 | 10667 ft | 303 kts | 13° |
| 2026-05-04 07:35 | 45.02730 | 12.11583 | 10423 ft | 299 kts | 357° |
| 2026-05-04 07:35 | 45.04808 | 12.11420 | 10203 ft | 298 kts | 352° |
| 2026-05-04 07:36 | 45.06779 | 12.10633 | 9794 ft | 292 kts | 329° |
| 2026-05-04 07:36 | 45.08324 | 12.08844 | 9432 ft | 287 kts | 312° |
| 2026-05-04 07:38 | 45.05702 | 11.94005 | 8023 ft | 267 kts | 220° |
| 2026-05-04 07:38 | 45.04301 | 11.92284 | 7877 ft | 267 kts | 221° |
| 2026-05-04 07:38 | 45.02909 | 11.90560 | 7710 ft | 266 kts | 221° |
| 2026-05-04 07:38 | 45.01629 | 11.88691 | 7507 ft | 265 kts | 236° |
| 2026-05-04 07:39 | 45.01086 | 11.86229 | 7307 ft | 267 kts | 269° |
| 2026-05-04 07:39 | 45.01621 | 11.83745 | 7119 ft | 270 kts | 302° |
| 2026-05-04 07:39 | 45.02817 | 11.81688 | 6951 ft | 272 kts | 312° |
| 2026-05-04 07:39 | 45.04289 | 11.80066 | 6743 ft | 274 kts | 334° |
| 2026-05-04 07:40 | 45.06153 | 11.79653 | 6575 ft | 275 kts | 8° |
| 2026-05-04 07:40 | 45.07882 | 11.80727 | 6390 ft | 274 kts | 37° |
| 2026-05-04 07:40 | 45.09321 | 11.82502 | 6197 ft | 274 kts | 44° |
| 2026-05-04 07:40 | 45.10700 | 11.84361 | 5997 ft | 273 kts | 44° |
| 2026-05-04 07:41 | 45.12080 | 11.86198 | 5536 ft | 270 kts | 43° |
| 2026-05-04 07:41 | 45.13457 | 11.87994 | 5034 ft | 268 kts | 43° |
| 2026-05-04 07:41 | 45.14833 | 11.89762 | 4511 ft | 266 kts | 42° |
| 2026-05-04 07:41 | 45.16206 | 11.91511 | 3982 ft | 264 kts | 41° |
| 2026-05-04 07:42 | 45.17568 | 11.93238 | 3487 ft | 261 kts | 41° |
| 2026-05-04 07:42 | 45.18914 | 11.94942 | 3113 ft | 258 kts | 41° |
| 2026-05-04 07:42 | 45.20258 | 11.96634 | 3011 ft | 259 kts | 41° |
| 2026-05-04 07:42 | 45.21606 | 11.98335 | 3002 ft | 259 kts | 41° |
| 2026-05-04 07:43 | 45.22931 | 12.00008 | 3004 ft | 247 kts | 41° |
| 2026-05-04 07:43 | 45.24164 | 12.01564 | 3000 ft | 235 kts | 41° |
| 2026-05-04 07:43 | 45.25377 | 12.03094 | 3005 ft | 233 kts | 41° |
| 2026-05-04 07:43 | 45.26593 | 12.04625 | 3003 ft | 234 kts | 41° |
| 2026-05-04 07:44 | 45.27809 | 12.06163 | 3006 ft | 235 kts | 41° |
| 2026-05-04 07:44 | 45.29027 | 12.07710 | 2999 ft | 235 kts | 41° |
| 2026-05-04 07:44 | 45.30245 | 12.09256 | 3002 ft | 235 kts | 41° |
| 2026-05-04 07:44 | 45.31462 | 12.10801 | 2996 ft | 235 kts | 41° |
| 2026-05-04 07:45 | 45.32672 | 12.12339 | 3026 ft | 232 kts | 42° |
| 2026-05-04 07:45 | 45.33880 | 12.13881 | 3002 ft | 233 kts | 42° |
| 2026-05-04 07:45 | 45.35087 | 12.15424 | 3000 ft | 234 kts | 42° |
| 2026-05-04 07:45 | 45.36281 | 12.16949 | 2998 ft | 221 kts | 42° |
| 2026-05-04 07:46 | 45.37353 | 12.18321 | 3026 ft | 197 kts | 42° |
| 2026-05-04 07:46 | 45.38347 | 12.19592 | 3004 ft | 190 kts | 42° |
| 2026-05-04 07:46 | 45.39306 | 12.20818 | 2771 ft | 183 kts | 42° |
| 2026-05-04 07:46 | 45.40243 | 12.22006 | 2454 ft | 176 kts | 42° |
| 2026-05-04 07:47 | 45.41127 | 12.23136 | 2216 ft | 166 kts | 42° |
| 2026-05-04 07:47 | 45.41979 | 12.24227 | 1984 ft | 164 kts | 42° |
| 2026-05-04 07:47 | 45.42827 | 12.25314 | 1769 ft | 164 kts | 43° |
| 2026-05-04 07:49 | 45.48032 | 12.32011 | 380 ft | 130 kts | 44° |
| 2026-05-04 07:49 | 45.48709 | 12.32872 | 221 ft | 130 kts | 43° |
| 2026-05-04 07:49 | 45.49385 | 12.33730 | 83 ft | 130 kts | 44° |
| 2026-05-04 07:50 | 45.50048 | 12.34592 | 23 ft | 128 kts | 44° |
| 2026-05-04 07:50 | 45.50599 | 12.35292 | 14 ft | 67 kts | 32° |
| 2026-05-04 07:50 | 45.50835 | 12.35427 | 18 ft | 27 kts | 13° |
| 2026-05-04 07:50 | 45.50961 | 12.35362 | 22 ft | 17 kts | 297° |
| 2026-05-04 07:51 | 45.50946 | 12.35199 | 23 ft | 13 kts | 242° |
| 2026-05-04 07:51 | 45.50881 | 12.35114 | 22 ft | 14 kts | 221° |
| 2026-05-04 07:51 | 45.50792 | 12.35000 | 19 ft | 20 kts | 223° |
| 2026-05-04 07:51 | 45.50680 | 12.34849 | 18 ft | 24 kts | 223° |
| 2026-05-04 07:52 | 45.50601 | 12.34637 | 18 ft | 26 kts | 265° |
| 2026-05-04 07:52 | 45.50586 | 12.34428 | 18 ft | 16 kts | 242° |
| 2026-05-04 07:52 | 45.50549 | 12.34275 | 19 ft | 18 kts | 266° |
| 2026-05-04 07:52 | 45.50546 | 12.34224 | 19 ft | 0 kts | 267° |